Time;durP1;ratioP1;P1;durP2;ratioP2;P2;SDS_P1;SDS_P2;PMS_P1;PMS_P2;Temp;Humidity;BMP_temperature;BMP_pressure;BME280_temperature;BME280_humidity;BME280_pressure;Samples;Min_cycle;Max_cycle;Signal;HPM_P1;HPM_P2
2020/12/30 00:01:22;;;;;;;34.40;21.25;;;;;;;;;;5088690;28;20200;-71
2020/12/30 00:03:48;;;;;;;33.38;20.02;;;;;;;;;;5087089;28;20660;-71
2020/12/30 00:06:14;;;;;;;35.17;21.50;;;;;;;;;;5070524;28;20552;-71
2020/12/30 00:08:40;;;;;;;33.75;21.08;;;;;;;;;;5080182;28;20216;-71
2020/12/30 00:11:06;;;;;;;35.58;20.92;;;;;;;;;;5081914;28;20211;-73
2020/12/30 00:13:32;;;;;;;35.22;22.40;;;;;;;;;;5078115;28;20180;-72
2020/12/30 00:15:58;;;;;;;36.25;22.50;;;;;;;;;;5073612;28;20187;-74
2020/12/30 00:18:24;;;;;;;35.35;22.15;;;;;;;;;;5076642;28;20197;-73
2020/12/30 00:20:50;;;;;;;36.95;22.30;;;;;;;;;;5073512;28;20200;-72
2020/12/30 00:23:16;;;;;;;33.65;22.10;;;;;;;;;;5089305;28;20214;-72
2020/12/30 00:25:42;;;;;;;41.53;26.23;;;;;;;;;;5093781;28;20187;-73
2020/12/30 00:28:08;;;;;;;38.45;23.70;;;;;;;;;;5095830;28;20175;-68
2020/12/30 00:30:34;;;;;;;42.30;23.83;;;;;;;;;;5090395;28;20242;-73
2020/12/30 00:33:00;;;;;;;42.55;24.35;;;;;;;;;;5075963;28;20179;-72
2020/12/30 00:35:26;;;;;;;41.03;25.30;;;;;;;;;;5091779;28;20172;-72
2020/12/30 00:37:52;;;;;;;40.28;25.02;;;;;;;;;;5095464;28;20172;-72
2020/12/30 00:40:18;;;;;;;45.03;26.95;;;;;;;;;;5095877;28;20521;-73
2020/12/30 00:42:44;;;;;;;43.67;26.20;;;;;;;;;;5095988;28;20183;-72
2020/12/30 00:45:11;;;;;;;45.72;26.35;;;;;;;;;;5095290;28;20186;-72
2020/12/30 00:47:37;;;;;;;50.90;26.33;;;;;;;;;;5083225;28;20219;-73
2020/12/30 00:50:03;;;;;;;43.22;28.13;;;;;;;;;;5075603;28;20540;-72
2020/12/30 00:52:29;;;;;;;44.53;26.10;;;;;;;;;;5088088;28;20184;-73
2020/12/30 00:54:55;;;;;;;44.97;26.08;;;;;;;;;;5085273;28;20230;-71
2020/12/30 00:57:22;;;;;;;47.95;28.52;;;;;;;;;;5088518;28;20175;-73
2020/12/30 00:59:48;;;;;;;46.78;26.75;;;;;;;;;;5095061;28;20192;-73
2020/12/30 01:02:14;;;;;;;49.10;27.15;;;;;;;;;;5095522;28;20175;-74
2020/12/30 01:04:40;;;;;;;45.40;26.95;;;;;;;;;;5095189;28;20175;-72
2020/12/30 01:07:06;;;;;;;43.25;26.27;;;;;;;;;;5095337;28;20270;-72
2020/12/30 01:09:32;;;;;;;43.58;27.45;;;;;;;;;;5095105;28;20210;-73
2020/12/30 01:12:02;;;;;;;46.15;26.58;;;;;;;;;;5094548;28;20179;-73
2020/12/30 01:14:28;;;;;;;49.75;30.05;;;;;;;;;;5094774;28;20195;-73
2020/12/30 01:16:55;;;;;;;45.95;27.95;;;;;;;;;;5085643;28;20181;-72
2020/12/30 01:19:21;;;;;;;45.20;28.10;;;;;;;;;;5094570;28;20182;-72
2020/12/30 01:21:47;;;;;;;45.20;27.17;;;;;;;;;;5090812;28;20186;-73
2020/12/30 01:24:13;;;;;;;54.88;28.48;;;;;;;;;;5082676;28;20596;-74
2020/12/30 01:26:40;;;;;;;50.03;29.95;;;;;;;;;;5074733;28;20510;-72
2020/12/30 01:29:06;;;;;;;47.45;29.55;;;;;;;;;;5086374;28;20204;-74
2020/12/30 01:31:33;;;;;;;52.15;29.15;;;;;;;;;;5091834;28;20206;-71
2020/12/30 01:33:59;;;;;;;46.00;28.10;;;;;;;;;;5093801;28;20266;-73
2020/12/30 01:36:26;;;;;;;46.53;27.83;;;;;;;;;;5074721;28;20172;-72
2020/12/30 01:38:52;;;;;;;44.25;28.17;;;;;;;;;;5084870;28;20183;-71
2020/12/30 01:41:18;;;;;;;46.47;28.85;;;;;;;;;;5091873;28;20196;-73
2020/12/30 01:44:00;;;;;;;43.55;26.05;;;;;;;;;;5094506;28;20203;-73
2020/12/30 01:46:33;;;;;;;43.78;27.58;;;;;;;;;;5092175;28;20277;-73
2020/12/30 01:49:00;;;;;;;45.58;28.75;;;;;;;;;;5076978;28;20218;-73
2020/12/30 01:51:26;;;;;;;44.80;27.67;;;;;;;;;;5074061;28;20306;-72
2020/12/30 01:53:53;;;;;;;44.33;27.23;;;;;;;;;;5073832;28;20510;-71
2020/12/30 01:56:21;;;;;;;44.35;28.77;;;;;;;;;;5088494;28;20188;-74
2020/12/30 01:58:47;;;;;;;44.00;28.30;;;;;;;;;;5091192;28;20175;-72
2020/12/30 02:01:15;;;;;;;46.53;27.88;;;;;;;;;;5083256;28;20605;-73
2020/12/30 02:03:43;;;;;;;42.63;27.75;;;;;;;;;;5094125;28;20539;-73
2020/12/30 02:06:09;;;;;;;47.72;27.70;;;;;;;;;;5078128;28;20219;-73
2020/12/30 02:08:35;;;;;;;51.28;28.77;;;;;;;;;;5073850;28;20208;-74
2020/12/30 02:11:01;;;;;;;44.88;29.20;;;;;;;;;;5094390;28;20207;-72
2020/12/30 02:13:27;;;;;;;47.97;28.23;;;;;;;;;;5094037;28;20167;-73
2020/12/30 02:15:53;;;;;;;51.17;29.00;;;;;;;;;;5092343;28;20581;-73
2020/12/30 02:18:19;;;;;;;46.22;29.10;;;;;;;;;;5091533;28;20179;-72
2020/12/30 02:20:45;;;;;;;46.17;28.95;;;;;;;;;;5093934;28;20195;-73
2020/12/30 02:23:12;;;;;;;50.22;28.83;;;;;;;;;;5094153;28;20176;-71
2020/12/30 02:25:38;;;;;;;46.67;27.90;;;;;;;;;;5092613;28;20559;-72
2020/12/30 02:28:04;;;;;;;50.53;29.67;;;;;;;;;;5093731;28;20191;-73
2020/12/30 02:30:30;;;;;;;47.38;29.70;;;;;;;;;;5092003;28;20203;-73
2020/12/30 02:32:56;;;;;;;46.78;30.30;;;;;;;;;;5093521;28;20670;-72
2020/12/30 02:35:23;;;;;;;44.40;28.42;;;;;;;;;;5087972;28;20215;-73
2020/12/30 02:37:50;;;;;;;46.90;29.95;;;;;;;;;;5077460;28;20228;-74
2020/12/30 02:40:16;;;;;;;47.80;29.20;;;;;;;;;;5088181;28;20565;-73
2020/12/30 02:42:42;;;;;;;44.97;28.23;;;;;;;;;;5084607;28;20278;-71
2020/12/30 02:45:09;;;;;;;44.45;29.88;;;;;;;;;;5092765;28;20215;-71
2020/12/30 02:47:35;;;;;;;50.50;30.60;;;;;;;;;;5093499;28;20186;-74
2020/12/30 02:50:02;;;;;;;43.20;28.83;;;;;;;;;;5088125;28;20238;-71
2020/12/30 02:52:28;;;;;;;41.97;28.15;;;;;;;;;;5085353;28;20181;-73
2020/12/30 02:54:54;;;;;;;43.05;28.33;;;;;;;;;;5078242;28;20545;-71
2020/12/30 02:57:20;;;;;;;44.45;28.80;;;;;;;;;;5073215;28;20168;-71
2020/12/30 02:59:47;;;;;;;41.15;27.30;;;;;;;;;;5086064;28;20694;-72
2020/12/30 03:02:13;;;;;;;45.67;27.88;;;;;;;;;;5089918;28;20190;-72
2020/12/30 03:04:39;;;;;;;41.35;27.30;;;;;;;;;;5091244;28;20175;-72
2020/12/30 03:07:05;;;;;;;46.08;28.77;;;;;;;;;;5072887;28;20188;-73
2020/12/30 03:09:31;;;;;;;42.53;27.70;;;;;;;;;;5083376;28;20195;-74
2020/12/30 03:11:57;;;;;;;42.38;27.58;;;;;;;;;;5093230;28;20178;-73
2020/12/30 03:14:23;;;;;;;41.92;27.08;;;;;;;;;;5086681;28;20179;-73
2020/12/30 03:16:49;;;;;;;42.90;27.50;;;;;;;;;;5083046;28;20171;-73
2020/12/30 03:19:15;;;;;;;43.35;27.23;;;;;;;;;;5092582;28;20175;-74
2020/12/30 03:21:41;;;;;;;41.90;27.77;;;;;;;;;;5092285;28;20194;-73
2020/12/30 03:24:08;;;;;;;45.05;27.13;;;;;;;;;;5080252;28;20187;-72
2020/12/30 03:26:35;;;;;;;42.03;25.90;;;;;;;;;;5074703;28;20661;-71
2020/12/30 03:29:01;;;;;;;41.13;27.75;;;;;;;;;;5091536;28;20230;-72
2020/12/30 03:31:31;;;;;;;38.88;25.15;;;;;;;;;;5092471;28;20224;-71
2020/12/30 03:33:57;;;;;;;40.28;25.65;;;;;;;;;;5079332;28;20187;-73
2020/12/30 03:36:23;;;;;;;36.70;26.15;;;;;;;;;;5092878;28;20178;-72
2020/12/30 03:38:50;;;;;;;41.25;26.15;;;;;;;;;;5091930;28;20179;-74
2020/12/30 03:41:16;;;;;;;38.83;25.35;;;;;;;;;;5094068;28;20682;-75
2020/12/30 03:43:42;;;;;;;36.70;24.35;;;;;;;;;;5083553;28;20572;-74
2020/12/30 03:46:08;;;;;;;39.13;25.38;;;;;;;;;;5079743;28;20187;-72
2020/12/30 03:48:34;;;;;;;33.67;22.10;;;;;;;;;;5090276;28;20209;-72
2020/12/30 03:51:00;;;;;;;36.70;23.67;;;;;;;;;;5096767;28;20187;-74
2020/12/30 03:53:26;;;;;;;36.95;23.60;;;;;;;;;;5096589;28;20175;-74
2020/12/30 03:55:53;;;;;;;29.55;20.05;;;;;;;;;;5097349;28;20252;-73
2020/12/30 03:58:19;;;;;;;37.35;23.08;;;;;;;;;;5083563;28;20184;-72
2020/12/30 04:00:45;;;;;;;36.30;23.10;;;;;;;;;;5086593;28;20191;-71
2020/12/30 04:03:11;;;;;;;38.65;23.17;;;;;;;;;;5096503;28;20175;-73
2020/12/30 04:05:37;;;;;;;32.75;23.60;;;;;;;;;;5096035;28;20167;-73
2020/12/30 04:08:03;;;;;;;34.72;23.90;;;;;;;;;;5083491;28;20590;-73
2020/12/30 04:10:29;;;;;;;33.35;22.52;;;;;;;;;;5098169;28;20203;-72
2020/12/30 04:12:55;;;;;;;32.78;23.10;;;;;;;;;;5095150;28;20182;-75
2020/12/30 04:15:21;;;;;;;35.20;24.23;;;;;;;;;;5095969;28;20172;-73
2020/12/30 04:17:47;;;;;;;38.30;23.90;;;;;;;;;;5093162;28;20179;-74
2020/12/30 04:20:13;;;;;;;31.42;21.48;;;;;;;;;;5090587;28;20202;-72
2020/12/30 04:22:39;;;;;;;38.50;23.90;;;;;;;;;;5096191;28;20187;-74
2020/12/30 04:25:05;;;;;;;33.63;23.38;;;;;;;;;;5095936;28;20181;-73
2020/12/30 04:27:32;;;;;;;37.67;23.55;;;;;;;;;;5092928;28;20189;-74
2020/12/30 04:29:58;;;;;;;37.67;24.25;;;;;;;;;;5095077;28;20203;-74
2020/12/30 04:32:24;;;;;;;36.22;23.95;;;;;;;;;;5093054;28;20234;-74
2020/12/30 04:34:49;;;;;;;37.78;24.02;;;;;;;;;;5086829;28;20179;-74
2020/12/30 04:37:16;;;;;;;34.83;24.00;;;;;;;;;;5093029;28;21029;-72
2020/12/30 04:39:42;;;;;;;36.50;25.08;;;;;;;;;;5095483;28;20203;-74
2020/12/30 04:42:08;;;;;;;38.83;23.80;;;;;;;;;;5093146;28;20564;-74
2020/12/30 04:44:38;;;;;;;39.13;25.10;;;;;;;;;;5079022;28;20233;-73
2020/12/30 04:47:04;;;;;;;36.17;24.85;;;;;;;;;;5085934;28;20265;-73
2020/12/30 04:49:30;;;;;;;34.45;23.98;;;;;;;;;;5091704;28;20335;-74
2020/12/30 04:51:57;;;;;;;40.35;24.80;;;;;;;;;;5095349;28;20234;-73
2020/12/30 04:54:23;;;;;;;42.40;25.40;;;;;;;;;;5094726;28;20191;-75
2020/12/30 04:57:04;;;;;;;38.78;26.13;;;;;;;;;;5083043;28;20184;-73
2020/12/30 04:59:36;;;;;;;39.15;25.05;;;;;;;;;;5086783;28;20180;-75
2020/12/30 05:02:13;;;;;;;41.83;26.85;;;;;;;;;;5092929;28;20262;-74
2020/12/30 05:04:40;;;;;;;40.15;25.63;;;;;;;;;;5095140;28;20171;-75
2020/12/30 05:07:07;;;;;;;41.17;26.30;;;;;;;;;;5085668;28;20566;-76
2020/12/30 05:09:34;;;;;;;34.08;23.33;;;;;;;;;;5103024;28;20610;-73
2020/12/30 05:12:00;;;;;;;40.72;24.20;;;;;;;;;;5091256;28;20178;-74
2020/12/30 05:14:27;;;;;;;39.33;25.02;;;;;;;;;;5094912;28;20172;-73
2020/12/30 05:16:53;;;;;;;34.67;22.67;;;;;;;;;;5090892;28;20191;-72
2020/12/30 05:19:19;;;;;;;38.05;23.23;;;;;;;;;;5094836;28;20179;-72
2020/12/30 05:21:45;;;;;;;31.13;21.88;;;;;;;;;;5088418;28;20236;-73
2020/12/30 05:24:12;;;;;;;35.20;22.98;;;;;;;;;;5094947;28;20175;-74
2020/12/30 05:26:39;;;;;;;33.50;23.08;;;;;;;;;;5088766;28;20226;-72
2020/12/30 05:29:05;;;;;;;34.75;23.17;;;;;;;;;;5094623;28;20206;-74
2020/12/30 05:31:32;;;;;;;38.33;24.30;;;;;;;;;;5095041;28;20195;-74
2020/12/30 05:33:59;;;;;;;31.67;23.02;;;;;;;;;;5094391;28;20168;-74
2020/12/30 05:36:26;;;;;;;30.92;21.77;;;;;;;;;;5078668;28;20175;-74
2020/12/30 05:38:52;;;;;;;33.38;21.77;;;;;;;;;;5094251;28;20175;-75
2020/12/30 05:41:19;;;;;;;32.58;23.75;;;;;;;;;;5076973;28;20287;-75
2020/12/30 05:43:45;;;;;;;32.25;23.10;;;;;;;;;;5080860;28;20180;-74
2020/12/30 05:46:11;;;;;;;31.00;20.83;;;;;;;;;;5074698;28;20172;-75
2020/12/30 05:48:37;;;;;;;31.05;22.98;;;;;;;;;;5088681;28;20525;-74
2020/12/30 05:51:03;;;;;;;33.25;22.08;;;;;;;;;;5094309;28;20199;-74
2020/12/30 05:53:29;;;;;;;31.42;21.13;;;;;;;;;;5094274;28;20171;-74
2020/12/30 05:56:10;;;;;;;30.77;21.63;;;;;;;;;;5094215;28;20183;-74
2020/12/30 05:58:41;;;;;;;32.78;22.30;;;;;;;;;;5078604;28;20322;-75
2020/12/30 06:01:27;;;;;;;34.55;22.65;;;;;;;;;;5087516;28;20220;-74
2020/12/30 06:03:53;;;;;;;29.20;21.63;;;;;;;;;;5093849;28;20227;-74
2020/12/30 06:06:21;;;;;;;31.27;22.00;;;;;;;;;;5084117;28;20552;-76
2020/12/30 06:08:49;;;;;;;28.67;20.42;;;;;;;;;;5089319;28;20216;-72
2020/12/30 06:11:23;;;;;;;28.48;20.25;;;;;;;;;;5100657;28;20198;-75
2020/12/30 06:13:52;;;;;;;30.40;21.40;;;;;;;;;;5081214;28;20531;-72
2020/12/30 06:16:20;;;;;;;31.30;22.13;;;;;;;;;;5081056;28;20521;-74
2020/12/30 06:18:48;;;;;;;28.05;19.27;;;;;;;;;;5089507;28;20211;-74
2020/12/30 06:21:15;;;;;;;33.33;20.77;;;;;;;;;;5091344;28;20199;-75
2020/12/30 06:23:43;;;;;;;31.60;21.42;;;;;;;;;;5073384;28;20259;-75
2020/12/30 06:26:11;;;;;;;30.70;20.45;;;;;;;;;;5075941;28;20187;-75
2020/12/30 06:28:37;;;;;;;31.08;21.33;;;;;;;;;;5093416;28;20195;-76
2020/12/30 06:31:03;;;;;;;31.25;20.88;;;;;;;;;;5092418;28;20199;-74
2020/12/30 06:33:29;;;;;;;27.50;19.27;;;;;;;;;;5088879;28;20179;-75
2020/12/30 06:35:56;;;;;;;33.63;22.25;;;;;;;;;;5094097;28;20254;-74
2020/12/30 06:38:23;;;;;;;32.28;22.00;;;;;;;;;;5093215;28;20251;-76
2020/12/30 06:40:53;;;;;;;36.08;21.55;;;;;;;;;;5093305;28;20206;-74
2020/12/30 06:43:38;;;;;;;29.95;20.25;;;;;;;;;;5073610;28;20173;-75
2020/12/30 06:46:04;;;;;;;29.15;21.63;;;;;;;;;;5086599;28;20536;-75
2020/12/30 06:48:30;;;;;;;27.90;20.60;;;;;;;;;;5079574;28;20208;-73
2020/12/30 06:51:15;;;;;;;29.58;21.30;;;;;;;;;;5082347;28;20213;-75
2020/12/30 06:53:49;;;;;;;30.80;20.88;;;;;;;;;;5093033;28;20543;-75
2020/12/30 06:56:15;;;;;;;28.77;21.85;;;;;;;;;;5080001;28;20190;-73
2020/12/30 06:58:43;;;;;;;31.67;22.55;;;;;;;;;;5079467;28;20204;-75
2020/12/30 07:01:10;;;;;;;32.03;22.20;;;;;;;;;;5074092;28;20196;-75
2020/12/30 07:03:36;;;;;;;31.75;21.23;;;;;;;;;;5071240;28;20207;-74
2020/12/30 07:06:38;;;;;;;29.88;22.20;;;;;;;;;;5079389;28;20183;-73
2020/12/30 07:09:05;;;;;;;28.13;20.98;;;;;;;;;;5093406;28;20599;-73
2020/12/30 07:11:43;;;;;;;31.23;22.67;;;;;;;;;;5100022;28;20199;-74
2020/12/30 07:14:09;;;;;;;29.13;21.90;;;;;;;;;;5080179;28;20186;-74
2020/12/30 07:16:36;;;;;;;32.53;22.88;;;;;;;;;;5091350;28;20167;-73
2020/12/30 07:19:08;;;;;;;31.33;22.50;;;;;;;;;;5090591;28;20183;-74
2020/12/30 07:21:35;;;;;;;32.10;23.10;;;;;;;;;;5091655;28;20191;-73
2020/12/30 07:24:03;;;;;;;30.55;21.08;;;;;;;;;;5072587;28;20214;-74
2020/12/30 07:26:29;;;;;;;34.40;23.33;;;;;;;;;;5072898;28;20207;-73
2020/12/30 07:28:58;;;;;;;34.28;22.40;;;;;;;;;;5085588;28;20234;-72
2020/12/30 07:31:24;;;;;;;31.40;22.52;;;;;;;;;;5079619;28;20199;-74
2020/12/30 07:33:50;;;;;;;32.75;21.73;;;;;;;;;;5092630;28;20259;-74
2020/12/30 07:36:17;;;;;;;31.75;23.27;;;;;;;;;;5076945;28;20180;-73
2020/12/30 07:38:43;;;;;;;30.40;21.73;;;;;;;;;;5072799;28;20211;-74
2020/12/30 07:41:10;;;;;;;36.72;22.58;;;;;;;;;;5072691;28;20290;-74
2020/12/30 07:43:49;;;;;;;33.38;21.40;;;;;;;;;;5072309;28;20181;-73
2020/12/30 07:46:18;;;;;;;30.83;22.10;;;;;;;;;;5072529;28;20232;-75
2020/12/30 07:48:44;;;;;;;35.15;21.85;;;;;;;;;;5084892;28;20663;-74
2020/12/30 07:51:10;;;;;;;31.80;21.60;;;;;;;;;;5073781;28;20195;-73
2020/12/30 07:53:36;;;;;;;28.98;20.45;;;;;;;;;;5071855;28;20181;-74
2020/12/30 07:56:03;;;;;;;32.75;22.83;;;;;;;;;;5070104;28;20176;-74
2020/12/30 07:58:29;;;;;;;30.02;21.30;;;;;;;;;;5078881;28;20176;-76
2020/12/30 08:00:55;;;;;;;33.25;22.83;;;;;;;;;;5072339;28;20203;-76
2020/12/30 08:03:22;;;;;;;32.80;21.80;;;;;;;;;;5068495;28;20535;-73
2020/12/30 08:05:50;;;;;;;31.77;21.35;;;;;;;;;;5087546;28;20179;-75
2020/12/30 08:08:16;;;;;;;31.15;22.00;;;;;;;;;;5088957;28;20187;-76
2020/12/30 08:10:43;;;;;;;28.73;20.65;;;;;;;;;;5089339;28;20230;-75
2020/12/30 08:13:09;;;;;;;32.05;21.20;;;;;;;;;;5088461;28;20228;-73
2020/12/30 08:15:35;;;;;;;33.75;22.65;;;;;;;;;;5087415;28;20667;-75
2020/12/30 08:18:02;;;;;;;32.25;20.33;;;;;;;;;;5081343;28;20201;-76
2020/12/30 08:20:28;;;;;;;33.42;21.48;;;;;;;;;;5088648;28;20282;-76
2020/12/30 08:22:57;;;;;;;30.02;20.73;;;;;;;;;;5088751;28;20187;-75
2020/12/30 08:25:23;;;;;;;31.33;21.77;;;;;;;;;;5082642;28;20187;-75
2020/12/30 08:27:50;;;;;;;30.98;20.98;;;;;;;;;;5083400;28;20191;-72
2020/12/30 08:30:16;;;;;;;31.88;22.42;;;;;;;;;;5083938;28;20283;-75
2020/12/30 08:32:45;;;;;;;29.92;20.95;;;;;;;;;;5084219;28;20182;-76
2020/12/30 08:35:14;;;;;;;36.63;22.48;;;;;;;;;;5078446;28;20248;-75
2020/12/30 08:37:44;;;;;;;30.70;21.15;;;;;;;;;;5091988;28;20664;-75
2020/12/30 08:40:24;;;;;;;32.42;22.52;;;;;;;;;;5084015;28;20329;-75
2020/12/30 08:42:50;;;;;;;34.25;21.52;;;;;;;;;;5088855;28;20179;-75
2020/12/30 08:45:19;;;;;;;36.20;24.00;;;;;;;;;;5091507;28;20187;-74
2020/12/30 08:47:46;;;;;;;33.35;23.02;;;;;;;;;;5088330;28;20184;-73
2020/12/30 08:50:14;;;;;;;34.83;23.98;;;;;;;;;;5083105;28;20220;-75
2020/12/30 08:52:40;;;;;;;33.53;23.17;;;;;;;;;;5090362;28;20183;-75
2020/12/30 08:55:07;;;;;;;32.42;22.13;;;;;;;;;;5091366;28;20651;-75
2020/12/30 08:57:33;;;;;;;35.78;23.60;;;;;;;;;;5087545;28;20211;-77
2020/12/30 09:00:14;;;;;;;37.22;25.02;;;;;;;;;;5080730;28;20731;-74
2020/12/30 09:02:40;;;;;;;37.25;23.67;;;;;;;;;;5085263;28;20215;-76
2020/12/30 09:05:06;;;;;;;34.20;23.17;;;;;;;;;;5075866;28;20188;-75
2020/12/30 09:07:32;;;;;;;38.25;23.73;;;;;;;;;;5079274;28;20202;-73
2020/12/30 09:10:09;;;;;;;33.40;23.00;;;;;;;;;;5092550;28;20711;-76
2020/12/30 09:12:35;;;;;;;37.97;25.17;;;;;;;;;;5089400;28;20183;-75
2020/12/30 09:15:01;;;;;;;34.67;23.80;;;;;;;;;;5084172;28;20680;-75
2020/12/30 09:17:27;;;;;;;39.90;23.88;;;;;;;;;;5071282;28;20215;-75
2020/12/30 09:20:07;;;;;;;39.70;24.33;;;;;;;;;;5070929;28;20204;-75
2020/12/30 09:22:33;;;;;;;37.05;23.75;;;;;;;;;;5086978;28;20197;-74
2020/12/30 09:24:59;;;;;;;36.42;24.88;;;;;;;;;;5088052;28;20254;-74
2020/12/30 09:27:25;;;;;;;34.30;22.85;;;;;;;;;;5083453;28;20270;-75
2020/12/30 09:30:10;;;;;;;34.10;24.27;;;;;;;;;;5085179;28;20739;-75
2020/12/30 09:32:36;;;;;;;35.88;21.80;;;;;;;;;;5090958;28;20640;-75
2020/12/30 09:35:03;;;;;;;32.97;23.05;;;;;;;;;;5090763;28;20179;-74
2020/12/30 09:37:29;;;;;;;40.88;24.92;;;;;;;;;;5080986;28;20172;-76
2020/12/30 09:40:07;;;;;;;35.22;23.77;;;;;;;;;;5087050;28;20203;-76
2020/12/30 09:42:36;;;;;;;35.13;23.50;;;;;;;;;;5091283;28;20190;-75
2020/12/30 09:45:07;;;;;;;36.22;23.67;;;;;;;;;;5072027;28;20391;-74
2020/12/30 09:47:34;;;;;;;33.10;22.60;;;;;;;;;;5085544;28;20646;-75
2020/12/30 09:50:00;;;;;;;35.08;23.33;;;;;;;;;;5088010;28;20292;-75
2020/12/30 09:52:26;;;;;;;32.72;21.23;;;;;;;;;;5078114;28;20187;-76
2020/12/30 09:54:52;;;;;;;35.60;23.45;;;;;;;;;;5089217;28;20250;-74
2020/12/30 09:57:18;;;;;;;32.45;21.23;;;;;;;;;;5090616;28;20184;-76
2020/12/30 09:59:44;;;;;;;33.70;22.58;;;;;;;;;;5086674;28;20211;-74
2020/12/30 10:02:11;;;;;;;36.17;23.58;;;;;;;;;;5090515;28;20188;-74
2020/12/30 10:04:38;;;;;;;34.55;22.55;;;;;;;;;;5070724;28;20212;-75
2020/12/30 10:07:04;;;;;;;37.08;23.08;;;;;;;;;;5078940;28;20195;-75
2020/12/30 10:09:31;;;;;;;37.03;22.98;;;;;;;;;;5072705;28;20253;-76
2020/12/30 10:11:57;;;;;;;32.95;22.75;;;;;;;;;;5077441;28;20190;-75
2020/12/30 10:14:23;;;;;;;37.85;23.02;;;;;;;;;;5070018;28;20176;-74
2020/12/30 10:16:49;;;;;;;36.33;22.23;;;;;;;;;;5075668;28;20213;-75
2020/12/30 10:19:16;;;;;;;31.58;21.25;;;;;;;;;;5070470;28;20183;-75
2020/12/30 10:21:42;;;;;;;34.17;21.65;;;;;;;;;;5083167;28;20290;-75
2020/12/30 10:24:08;;;;;;;33.22;22.25;;;;;;;;;;5069580;28;20259;-72
2020/12/30 10:26:34;;;;;;;32.35;21.90;;;;;;;;;;5084478;28;20552;-72
2020/12/30 10:29:01;;;;;;;30.77;21.30;;;;;;;;;;5088860;28;20606;-74
2020/12/30 10:31:28;;;;;;;33.45;20.50;;;;;;;;;;5083749;28;20211;-73
2020/12/30 10:33:54;;;;;;;33.05;22.55;;;;;;;;;;5087451;28;20250;-75
2020/12/30 10:36:22;;;;;;;42.90;22.88;;;;;;;;;;5089948;28;20547;-75
2020/12/30 10:38:48;;;;;;;35.58;21.92;;;;;;;;;;5089559;28;20215;-74
2020/12/30 10:41:18;;;;;;;35.28;21.83;;;;;;;;;;5089166;28;20682;-74
2020/12/30 10:43:44;;;;;;;32.60;21.60;;;;;;;;;;5077306;28;20811;-74
2020/12/30 10:46:14;;;;;;;33.25;22.50;;;;;;;;;;5069395;28;20186;-74
2020/12/30 10:48:41;;;;;;;34.17;22.00;;;;;;;;;;5078416;28;20188;-74
2020/12/30 10:51:10;;;;;;;32.22;21.67;;;;;;;;;;5087893;28;20198;-73
2020/12/30 10:53:36;;;;;;;31.42;21.45;;;;;;;;;;5087635;28;20185;-76
2020/12/30 10:56:02;;;;;;;36.63;22.55;;;;;;;;;;5081792;28;20667;-73
2020/12/30 10:58:29;;;;;;;34.63;21.60;;;;;;;;;;5070014;28;20176;-73
2020/12/30 11:00:56;;;;;;;35.22;22.02;;;;;;;;;;5089564;28;20222;-75
2020/12/30 11:03:22;;;;;;;33.05;20.55;;;;;;;;;;5089508;28;20183;-73
2020/12/30 11:05:48;;;;;;;34.67;22.45;;;;;;;;;;5089136;28;20266;-75
2020/12/30 11:08:15;;;;;;;32.63;21.85;;;;;;;;;;5088001;28;20207;-75
2020/12/30 11:10:41;;;;;;;36.70;21.75;;;;;;;;;;5085828;28;20277;-73
2020/12/30 11:13:07;;;;;;;34.22;21.42;;;;;;;;;;5068973;28;20183;-75
2020/12/30 11:15:36;;;;;;;34.58;22.10;;;;;;;;;;5068741;28;20184;-72
2020/12/30 11:18:03;;;;;;;32.30;20.88;;;;;;;;;;5068954;28;20183;-74
2020/12/30 11:20:29;;;;;;;36.50;22.27;;;;;;;;;;5067712;28;20207;-74
2020/12/30 11:22:55;;;;;;;30.58;20.73;;;;;;;;;;5068818;28;20186;-73
2020/12/30 11:25:21;;;;;;;33.63;22.85;;;;;;;;;;5068597;28;20940;-73
2020/12/30 11:27:48;;;;;;;30.10;20.17;;;;;;;;;;5069805;28;20537;-73
2020/12/30 11:30:14;;;;;;;32.25;19.85;;;;;;;;;;5088949;28;20214;-73
2020/12/30 11:32:43;;;;;;;28.90;20.80;;;;;;;;;;5089089;28;20175;-74
2020/12/30 11:35:09;;;;;;;27.88;19.13;;;;;;;;;;5088699;28;20167;-75
2020/12/30 11:37:35;;;;;;;31.83;21.30;;;;;;;;;;5088786;28;20183;-74
2020/12/30 11:40:01;;;;;;;32.55;21.50;;;;;;;;;;5082016;28;20215;-73
2020/12/30 11:42:27;;;;;;;30.13;20.55;;;;;;;;;;5079303;28;20647;-75
2020/12/30 11:44:53;;;;;;;28.48;20.35;;;;;;;;;;5088378;28;20192;-73
2020/12/30 11:47:20;;;;;;;32.58;20.20;;;;;;;;;;5088741;28;20708;-73
2020/12/30 11:49:46;;;;;;;29.27;19.52;;;;;;;;;;5084270;28;20211;-75
2020/12/30 11:52:12;;;;;;;32.33;20.02;;;;;;;;;;5087248;28;20191;-74
2020/12/30 11:54:38;;;;;;;35.03;21.60;;;;;;;;;;5088046;28;20586;-74
2020/12/30 11:57:04;;;;;;;31.17;20.08;;;;;;;;;;5088935;28;20190;-74
2020/12/30 11:59:31;;;;;;;35.33;21.33;;;;;;;;;;5076618;28;20180;-75
2020/12/30 12:01:57;;;;;;;34.25;20.88;;;;;;;;;;5089895;28;20194;-73
2020/12/30 12:04:23;;;;;;;33.78;21.80;;;;;;;;;;5092575;28;20607;-74
2020/12/30 12:06:49;;;;;;;31.88;22.85;;;;;;;;;;5092743;28;20194;-75
2020/12/30 12:09:15;;;;;;;33.90;21.50;;;;;;;;;;5084189;28;20201;-74
2020/12/30 12:11:42;;;;;;;33.35;22.70;;;;;;;;;;5085249;28;20194;-73
2020/12/30 12:14:08;;;;;;;34.08;20.98;;;;;;;;;;5083777;28;20184;-75
2020/12/30 12:16:34;;;;;;;31.20;22.73;;;;;;;;;;5070899;28;20220;-73
2020/12/30 12:19:00;;;;;;;32.47;21.52;;;;;;;;;;5082267;28;20187;-75
2020/12/30 12:21:26;;;;;;;32.88;21.00;;;;;;;;;;5072080;28;20208;-72
2020/12/30 12:23:52;;;;;;;34.45;21.52;;;;;;;;;;5079606;28;20186;-74
2020/12/30 12:26:22;;;;;;;34.53;21.98;;;;;;;;;;5071758;28;20720;-74
2020/12/30 12:28:48;;;;;;;33.53;22.10;;;;;;;;;;5085861;28;20259;-73
2020/12/30 12:31:18;;;;;;;33.87;22.87;;;;;;;;;;5092126;28;20282;-74
2020/12/30 12:33:44;;;;;;;35.65;23.27;;;;;;;;;;5081628;28;20830;-74
2020/12/30 12:36:13;;;;;;;38.05;23.00;;;;;;;;;;5071714;28;20590;-74
2020/12/30 12:38:40;;;;;;;33.08;24.30;;;;;;;;;;5074215;28;20230;-75
2020/12/30 12:41:06;;;;;;;32.42;22.60;;;;;;;;;;5071691;28;20283;-74
2020/12/30 12:43:32;;;;;;;32.58;22.38;;;;;;;;;;5072342;28;20176;-76
2020/12/30 12:45:58;;;;;;;32.67;21.23;;;;;;;;;;5083544;28;20249;-74
2020/12/30 12:48:24;;;;;;;34.45;22.70;;;;;;;;;;5090052;28;20171;-75
2020/12/30 12:50:50;;;;;;;36.65;22.77;;;;;;;;;;5089740;28;20215;-74
2020/12/30 12:53:17;;;;;;;35.75;22.58;;;;;;;;;;5074871;28;20167;-75
2020/12/30 12:55:43;;;;;;;33.25;22.63;;;;;;;;;;5089912;28;20194;-75
2020/12/30 12:58:09;;;;;;;32.70;22.83;;;;;;;;;;5083808;28;20177;-76
2020/12/30 13:00:35;;;;;;;34.00;22.85;;;;;;;;;;5091140;28;20203;-75
2020/12/30 13:03:01;;;;;;;30.10;22.45;;;;;;;;;;5091827;28;20586;-73
2020/12/30 13:05:27;;;;;;;36.80;23.48;;;;;;;;;;5091009;28;20187;-73
2020/12/30 13:07:53;;;;;;;35.80;22.90;;;;;;;;;;5091146;28;20214;-74
2020/12/30 13:10:19;;;;;;;30.40;21.70;;;;;;;;;;5089367;28;20214;-72
2020/12/30 13:12:45;;;;;;;35.40;24.33;;;;;;;;;;5078849;28;20182;-75
2020/12/30 13:15:11;;;;;;;32.53;22.42;;;;;;;;;;5090530;28;20180;-75
2020/12/30 13:17:37;;;;;;;34.75;22.63;;;;;;;;;;5085601;28;20180;-71
2020/12/30 13:20:03;;;;;;;37.72;23.92;;;;;;;;;;5070945;28;20204;-75
2020/12/30 13:22:29;;;;;;;32.63;22.98;;;;;;;;;;5071047;28;20544;-75
2020/12/30 13:24:55;;;;;;;33.38;23.38;;;;;;;;;;5082761;28;20184;-74
2020/12/30 13:27:21;;;;;;;34.42;23.42;;;;;;;;;;5085094;28;20180;-75
2020/12/30 13:29:47;;;;;;;36.55;24.30;;;;;;;;;;5087016;28;20207;-74
2020/12/30 13:32:13;;;;;;;39.40;22.48;;;;;;;;;;5089862;28;20175;-74
2020/12/30 13:34:39;;;;;;;33.10;23.25;;;;;;;;;;5089035;28;20183;-74
2020/12/30 13:37:05;;;;;;;35.80;23.92;;;;;;;;;;5085266;28;20187;-73
2020/12/30 13:39:31;;;;;;;34.80;25.10;;;;;;;;;;5090714;28;20644;-74
2020/12/30 13:41:58;;;;;;;34.38;23.67;;;;;;;;;;5090252;28;20179;-74
2020/12/30 13:44:23;;;;;;;31.70;22.85;;;;;;;;;;5090693;28;20187;-75
2020/12/30 13:46:50;;;;;;;36.80;26.10;;;;;;;;;;5088999;28;20323;-73
2020/12/30 13:49:16;;;;;;;32.88;24.42;;;;;;;;;;5078670;28;20295;-72
2020/12/30 13:51:42;;;;;;;35.63;25.08;;;;;;;;;;5080667;28;20204;-76
2020/12/30 13:54:08;;;;;;;32.50;23.90;;;;;;;;;;5069974;28;20185;-75
2020/12/30 13:56:34;;;;;;;34.60;23.90;;;;;;;;;;5083342;28;20178;-75
2020/12/30 13:59:01;;;;;;;34.28;23.63;;;;;;;;;;5088878;28;20179;-73
2020/12/30 14:01:27;;;;;;;34.17;23.73;;;;;;;;;;5071628;28;20253;-73
2020/12/30 14:03:53;;;;;;;28.10;20.27;;;;;;;;;;5084154;28;20179;-74
2020/12/30 14:06:26;;;;;;;29.45;22.25;;;;;;;;;;5090098;28;20183;-75
2020/12/30 14:08:52;;;;;;;31.52;22.00;;;;;;;;;;5084662;28;20194;-74
2020/12/30 14:11:18;;;;;;;29.90;20.23;;;;;;;;;;5079493;28;20199;-74
2020/12/30 14:13:45;;;;;;;29.48;20.30;;;;;;;;;;5089978;28;20294;-76
2020/12/30 14:16:13;;;;;;;27.40;20.08;;;;;;;;;;5083892;28;20569;-74